Brownstown Township, MI (48193)

1:13 AM EDT on May 06, 2015 (GMT -0400)
N. Grosse Ile | | Change Station
CLOSE
Current Station
Personal Weather Station
Location: Grosse Ile, MI
Elevation: 574 ft
Nearby Weather Stations

Elev 574 ft 42.18 °N, 83.14 °W | Updated 14 seconds ago

Overcast
Overcast
50.2 °F
Feels Like 50.2 °F
N
0.4
Wind Variable Wind from NNE
Gusts 2.5 mph

Today
High -- | Low -- °F
--% Chance of Precip.
Yesterday
High -- | Low -- °F
Precip. -- in
6:22 AM 8:37 PM
Waning Gibbous, 96% visible
Pressure 30.27 in
Visibility 7.0 miles
Clouds Overcast 500 ft
Dew Point 50 °F
Humidity 99%
Rainfall 0.18 in
Snow Depth Not available.
UV 0.0 out of 12
Pollen 8.50 out of 12
Air Quality Not available.
Flu Activity Regional
METAR KONZ 060454Z AUTO 02004KT 7SM OVC005 11/09 A3027 RMK AO2 P0001

More Conditions Fewer Conditions

Pressure 30.27 in
Visibility 7.0 miles
Clouds Overcast 500 ft
Dew Point 50 °F
Humidity 99%
Rainfall 0.18 in
Snow Depth Not available.
UV 0.0 out of 12
Pollen 8.50 out of 12
Air Quality Not available.
Flu Activity Regional
METAR KONZ 060454Z AUTO 02004KT 7SM OVC005 11/09 A3027 RMK AO2 P0001

More Conditions Fewer Conditions

10-Day Weather Forecast

Almanac

Astronomy

May. 06, 2015 Rise Set
Actual Time
Civil Twilight
Nautical Twilight
Astronomical Twilight
Moon
Length of Visible Light
Length of Day
Tomorrow will be .
, % of the Moon is Illuminated

Today's Extremes

State Highs State Lows

Community

WunderPhotos

Upload Photos

1,818,838 photos uploaded!

WunderBlogs® & News

Nearby

Air Quality

  Air Quality AQ Index Pollutant
Not available.

Snow Depth

Station Depth Elevation

Earthquake Activity

City Distance Mag. Time & Date
Minimum magnitude displayed is 2.5.

Coastal Water Temperatures

Place Temperature

Stations

Nearby Weather Stations

Station Location Temp. Windchill Dew Point Humidity Wind Precip. Elev Updated Type